sensor_id;sensor_type;location;lat;lon;timestamp;P1;durP1;ratioP1;P2;durP2;ratioP2
7989;SDS011;4040;42.848;23.034;2022-08-11T00:01:13;8.95;;;8.05;;
7989;SDS011;4040;42.848;23.034;2022-08-11T00:11:06;9.65;;;8.75;;
7989;SDS011;4040;42.848;23.034;2022-08-11T00:17:00;9.27;;;8.38;;
7989;SDS011;4040;42.848;23.034;2022-08-11T00:22:50;9.27;;;8.35;;
7989;SDS011;4040;42.848;23.034;2022-08-11T00:28:39;8.60;;;7.70;;
7989;SDS011;4040;42.848;23.034;2022-08-11T00:34:31;11.20;;;7.80;;
7989;SDS011;4040;42.848;23.034;2022-08-11T00:40:26;9.88;;;8.55;;
7989;SDS011;4040;42.848;23.034;2022-08-11T00:46:28;8.13;;;7.32;;
7989;SDS011;4040;42.848;23.034;2022-08-11T00:52:35;8.98;;;7.90;;
7989;SDS011;4040;42.848;23.034;2022-08-11T00:58:56;10.15;;;8.00;;
7989;SDS011;4040;42.848;23.034;2022-08-11T01:05:21;9.35;;;8.07;;
7989;SDS011;4040;42.848;23.034;2022-08-11T01:11:49;8.80;;;7.90;;
7989;SDS011;4040;42.848;23.034;2022-08-11T01:24:16;10.40;;;8.07;;
7989;SDS011;4040;42.848;23.034;2022-08-11T01:30:36;9.77;;;8.00;;
7989;SDS011;4040;42.848;23.034;2022-08-11T01:37:00;13.50;;;8.63;;
7989;SDS011;4040;42.848;23.034;2022-08-11T01:49:55;10.60;;;8.75;;
7989;SDS011;4040;42.848;23.034;2022-08-11T01:55:58;11.85;;;9.13;;
7989;SDS011;4040;42.848;23.034;2022-08-11T02:02:05;10.47;;;9.37;;
7989;SDS011;4040;42.848;23.034;2022-08-11T02:08:40;11.80;;;9.20;;
7989;SDS011;4040;42.848;23.034;2022-08-11T02:14:38;10.67;;;9.50;;
7989;SDS011;4040;42.848;23.034;2022-08-11T02:20:39;9.93;;;8.93;;
7989;SDS011;4040;42.848;23.034;2022-08-11T02:26:49;10.88;;;9.25;;
7989;SDS011;4040;42.848;23.034;2022-08-11T02:32:50;12.43;;;9.88;;
7989;SDS011;4040;42.848;23.034;2022-08-11T02:39:01;11.30;;;9.48;;
7989;SDS011;4040;42.848;23.034;2022-08-11T02:45:10;15.80;;;8.82;;
7989;SDS011;4040;42.848;23.034;2022-08-11T02:51:31;12.77;;;8.27;;
7989;SDS011;4040;42.848;23.034;2022-08-11T02:57:28;20.50;;;8.52;;
7989;SDS011;4040;42.848;23.034;2022-08-11T03:03:22;23.65;;;7.47;;
7989;SDS011;4040;42.848;23.034;2022-08-11T03:09:22;18.50;;;7.83;;
7989;SDS011;4040;42.848;23.034;2022-08-11T03:15:18;9.52;;;7.97;;
7989;SDS011;4040;42.848;23.034;2022-08-11T03:21:31;15.75;;;8.82;;
7989;SDS011;4040;42.848;23.034;2022-08-11T03:27:34;11.40;;;8.77;;
7989;SDS011;4040;42.848;23.034;2022-08-11T03:33:36;12.52;;;9.10;;
7989;SDS011;4040;42.848;23.034;2022-08-11T03:39:47;12.75;;;9.52;;
7989;SDS011;4040;42.848;23.034;2022-08-11T03:45:48;16.23;;;9.88;;
7989;SDS011;4040;42.848;23.034;2022-08-11T03:51:50;12.55;;;9.73;;
7989;SDS011;4040;42.848;23.034;2022-08-11T03:57:45;16.02;;;10.48;;
7989;SDS011;4040;42.848;23.034;2022-08-11T04:20:52;18.02;;;12.50;;
7989;SDS011;4040;42.848;23.034;2022-08-11T04:27:00;25.48;;;13.88;;
7989;SDS011;4040;42.848;23.034;2022-08-11T04:48:02;19.70;;;13.77;;
7989;SDS011;4040;42.848;23.034;2022-08-11T04:54:28;19.58;;;13.50;;
7989;SDS011;4040;42.848;23.034;2022-08-11T05:00:53;17.30;;;12.13;;
7989;SDS011;4040;42.848;23.034;2022-08-11T05:07:19;16.38;;;11.90;;
7989;SDS011;4040;42.848;23.034;2022-08-11T05:13:25;13.88;;;10.13;;
7989;SDS011;4040;42.848;23.034;2022-08-11T05:19:33;14.13;;;9.52;;
7989;SDS011;4040;42.848;23.034;2022-08-11T05:25:42;10.68;;;8.68;;
7989;SDS011;4040;42.848;23.034;2022-08-11T05:31:56;11.55;;;8.55;;
7989;SDS011;4040;42.848;23.034;2022-08-11T05:38:07;10.20;;;8.40;;
7989;SDS011;4040;42.848;23.034;2022-08-11T05:44:16;10.80;;;8.30;;
7989;SDS011;4040;42.848;23.034;2022-08-11T05:50:26;9.07;;;7.55;;
7989;SDS011;4040;42.848;23.034;2022-08-11T05:56:33;9.45;;;7.38;;
7989;SDS011;4040;42.848;23.034;2022-08-11T06:02:28;10.80;;;7.40;;
7989;SDS011;4040;42.848;23.034;2022-08-11T06:08:19;10.45;;;7.88;;
7989;SDS011;4040;42.848;23.034;2022-08-11T06:14:17;11.63;;;7.13;;
7989;SDS011;4040;42.848;23.034;2022-08-11T06:20:08;8.43;;;6.85;;
7989;SDS011;4040;42.848;23.034;2022-08-11T06:26:00;8.98;;;7.30;;
7989;SDS011;4040;42.848;23.034;2022-08-11T06:32:10;8.45;;;7.53;;
7989;SDS011;4040;42.848;23.034;2022-08-11T06:38:04;16.90;;;12.63;;
7989;SDS011;4040;42.848;23.034;2022-08-11T06:44:08;11.00;;;8.43;;
7989;SDS011;4040;42.848;23.034;2022-08-11T06:50:08;12.10;;;9.95;;
7989;SDS011;4040;42.848;23.034;2022-08-11T06:56:15;11.15;;;9.30;;
7989;SDS011;4040;42.848;23.034;2022-08-11T07:02:31;10.23;;;9.02;;
7989;SDS011;4040;42.848;23.034;2022-08-11T07:08:46;9.75;;;8.15;;
7989;SDS011;4040;42.848;23.034;2022-08-11T07:15:11;8.77;;;7.65;;
7989;SDS011;4040;42.848;23.034;2022-08-11T07:21:21;8.25;;;7.38;;
7989;SDS011;4040;42.848;23.034;2022-08-11T07:27:34;9.80;;;8.38;;
7989;SDS011;4040;42.848;23.034;2022-08-11T07:33:46;10.48;;;8.32;;
7989;SDS011;4040;42.848;23.034;2022-08-11T07:39:38;10.15;;;8.10;;
7989;SDS011;4040;42.848;23.034;2022-08-11T07:45:30;11.30;;;9.10;;
7989;SDS011;4040;42.848;23.034;2022-08-11T07:51:37;8.52;;;7.63;;
7989;SDS011;4040;42.848;23.034;2022-08-11T07:57:46;10.75;;;8.45;;
7989;SDS011;4040;42.848;23.034;2022-08-11T09:34:28;8.82;;;5.72;;
7989;SDS011;4040;42.848;23.034;2022-08-11T09:40:17;9.77;;;5.25;;
7989;SDS011;4040;42.848;23.034;2022-08-11T09:46:21;15.90;;;6.07;;
7989;SDS011;4040;42.848;23.034;2022-08-11T09:52:15;9.15;;;5.20;;
7989;SDS011;4040;42.848;23.034;2022-08-11T09:58:05;6.70;;;4.80;;
7989;SDS011;4040;42.848;23.034;2022-08-11T10:04:02;8.43;;;5.45;;
7989;SDS011;4040;42.848;23.034;2022-08-11T10:10:00;8.95;;;5.80;;
7989;SDS011;4040;42.848;23.034;2022-08-11T10:15:52;9.90;;;5.60;;
7989;SDS011;4040;42.848;23.034;2022-08-11T10:21:44;11.48;;;6.10;;
7989;SDS011;4040;42.848;23.034;2022-08-11T10:27:57;14.18;;;5.80;;
7989;SDS011;4040;42.848;23.034;2022-08-11T10:34:17;14.00;;;5.25;;
7989;SDS011;4040;42.848;23.034;2022-08-11T10:40:09;4.57;;;3.85;;
7989;SDS011;4040;42.848;23.034;2022-08-11T10:46:04;5.28;;;3.30;;
7989;SDS011;4040;42.848;23.034;2022-08-11T10:52:14;4.30;;;3.38;;
7989;SDS011;4040;42.848;23.034;2022-08-11T10:58:20;3.25;;;2.65;;
7989;SDS011;4040;42.848;23.034;2022-08-11T11:04:31;4.75;;;3.67;;
7989;SDS011;4040;42.848;23.034;2022-08-11T11:10:29;3.30;;;3.00;;
7989;SDS011;4040;42.848;23.034;2022-08-11T11:16:19;3.15;;;2.15;;
7989;SDS011;4040;42.848;23.034;2022-08-11T11:22:27;7.82;;;3.03;;
7989;SDS011;4040;42.848;23.034;2022-08-11T11:28:29;2.28;;;2.08;;
7989;SDS011;4040;42.848;23.034;2022-08-11T11:34:36;3.05;;;2.45;;
7989;SDS011;4040;42.848;23.034;2022-08-11T11:40:34;4.53;;;2.50;;
7989;SDS011;4040;42.848;23.034;2022-08-11T11:46:25;3.08;;;2.53;;
7989;SDS011;4040;42.848;23.034;2022-08-11T11:52:15;5.82;;;2.42;;
7989;SDS011;4040;42.848;23.034;2022-08-11T11:58:07;4.70;;;2.67;;
7989;SDS011;4040;42.848;23.034;2022-08-11T12:04:13;3.50;;;2.85;;
7989;SDS011;4040;42.848;23.034;2022-08-11T12:10:05;3.83;;;3.00;;
7989;SDS011;4040;42.848;23.034;2022-08-11T12:15:57;4.35;;;2.95;;
7989;SDS011;4040;42.848;23.034;2022-08-11T12:21:49;3.78;;;3.45;;
7989;SDS011;4040;42.848;23.034;2022-08-11T12:27:56;6.40;;;3.00;;
7989;SDS011;4040;42.848;23.034;2022-08-11T12:33:47;8.43;;;3.72;;
7989;SDS011;4040;42.848;23.034;2022-08-11T12:39:36;6.30;;;3.40;;
7989;SDS011;4040;42.848;23.034;2022-08-11T12:45:46;3.85;;;2.65;;
7989;SDS011;4040;42.848;23.034;2022-08-11T12:51:40;3.30;;;2.97;;
7989;SDS011;4040;42.848;23.034;2022-08-11T12:57:47;4.10;;;2.75;;
7989;SDS011;4040;42.848;23.034;2022-08-11T13:03:53;15.13;;;3.53;;
7989;SDS011;4040;42.848;23.034;2022-08-11T13:10:03;4.15;;;2.38;;
7989;SDS011;4040;42.848;23.034;2022-08-11T13:15:55;6.00;;;2.47;;
7989;SDS011;4040;42.848;23.034;2022-08-11T13:21:45;2.20;;;2.00;;
7989;SDS011;4040;42.848;23.034;2022-08-11T13:27:35;2.88;;;2.30;;
7989;SDS011;4040;42.848;23.034;2022-08-11T13:33:25;5.28;;;2.25;;
7989;SDS011;4040;42.848;23.034;2022-08-11T13:39:14;2.30;;;2.10;;
7989;SDS011;4040;42.848;23.034;2022-08-11T13:45:06;4.20;;;2.10;;
7989;SDS011;4040;42.848;23.034;2022-08-11T13:50:56;4.07;;;2.42;;
7989;SDS011;4040;42.848;23.034;2022-08-11T13:57:02;2.75;;;2.35;;
7989;SDS011;4040;42.848;23.034;2022-08-11T14:02:54;2.63;;;2.42;;
7989;SDS011;4040;42.848;23.034;2022-08-11T14:08:45;3.08;;;2.40;;
7989;SDS011;4040;42.848;23.034;2022-08-11T14:14:34;6.40;;;2.72;;
7989;SDS011;4040;42.848;23.034;2022-08-11T14:20:24;3.15;;;2.20;;
7989;SDS011;4040;42.848;23.034;2022-08-11T14:26:35;2.78;;;2.40;;
7989;SDS011;4040;42.848;23.034;2022-08-11T14:36:49;4.93;;;3.45;;
7989;SDS011;4040;42.848;23.034;2022-08-11T14:42:40;4.65;;;3.30;;
7989;SDS011;4040;42.848;23.034;2022-08-11T14:48:46;5.00;;;3.50;;
7989;SDS011;4040;42.848;23.034;2022-08-11T14:54:37;4.90;;;3.58;;
7989;SDS011;4040;42.848;23.034;2022-08-11T15:00:46;6.00;;;3.45;;
7989;SDS011;4040;42.848;23.034;2022-08-11T15:06:39;5.78;;;3.90;;
7989;SDS011;4040;42.848;23.034;2022-08-11T15:12:30;4.10;;;3.78;;
7989;SDS011;4040;42.848;23.034;2022-08-11T15:18:21;3.85;;;3.55;;
7989;SDS011;4040;42.848;23.034;2022-08-11T15:24:11;4.55;;;3.85;;
7989;SDS011;4040;42.848;23.034;2022-08-11T15:30:11;4.78;;;3.85;;
7989;SDS011;4040;42.848;23.034;2022-08-11T15:36:17;4.90;;;4.03;;
7989;SDS011;4040;42.848;23.034;2022-08-11T15:42:38;6.20;;;3.60;;
7989;SDS011;4040;42.848;23.034;2022-08-11T15:48:54;4.30;;;3.90;;
7989;SDS011;4040;42.848;23.034;2022-08-11T15:54:44;4.45;;;4.03;;
7989;SDS011;4040;42.848;23.034;2022-08-11T16:00:36;7.03;;;4.22;;
7989;SDS011;4040;42.848;23.034;2022-08-11T16:06:47;4.55;;;3.58;;
7989;SDS011;4040;42.848;23.034;2022-08-11T16:12:40;4.78;;;4.13;;
7989;SDS011;4040;42.848;23.034;2022-08-11T16:19:02;4.72;;;4.22;;
7989;SDS011;4040;42.848;23.034;2022-08-11T16:24:56;5.00;;;4.35;;
7989;SDS011;4040;42.848;23.034;2022-08-11T16:30:47;4.95;;;4.43;;
7989;SDS011;4040;42.848;23.034;2022-08-11T16:36:37;6.65;;;4.70;;
7989;SDS011;4040;42.848;23.034;2022-08-11T16:42:45;4.57;;;4.18;;
7989;SDS011;4040;42.848;23.034;2022-08-11T16:48:53;6.10;;;4.57;;
7989;SDS011;4040;42.848;23.034;2022-08-11T16:54:43;8.05;;;4.97;;
7989;SDS011;4040;42.848;23.034;2022-08-11T17:00:34;5.28;;;4.10;;
7989;SDS011;4040;42.848;23.034;2022-08-11T17:06:24;4.45;;;4.05;;
7989;SDS011;4040;42.848;23.034;2022-08-11T17:12:50;5.57;;;4.10;;
7989;SDS011;4040;42.848;23.034;2022-08-11T17:18:58;5.22;;;4.72;;
7989;SDS011;4040;42.848;23.034;2022-08-11T17:24:50;5.32;;;3.97;;
7989;SDS011;4040;42.848;23.034;2022-08-11T17:30:40;5.53;;;4.38;;
7989;SDS011;4040;42.848;23.034;2022-08-11T17:36:49;5.82;;;4.28;;
7989;SDS011;4040;42.848;23.034;2022-08-11T17:42:39;5.88;;;4.18;;
7989;SDS011;4040;42.848;23.034;2022-08-11T17:48:48;6.38;;;4.47;;
7989;SDS011;4040;42.848;23.034;2022-08-11T17:54:39;7.35;;;4.43;;
7989;SDS011;4040;42.848;23.034;2022-08-11T18:00:47;6.75;;;4.20;;
7989;SDS011;4040;42.848;23.034;2022-08-11T18:06:37;5.43;;;4.20;;
7989;SDS011;4040;42.848;23.034;2022-08-11T18:12:29;6.10;;;4.40;;
7989;SDS011;4040;42.848;23.034;2022-08-11T18:18:35;5.03;;;4.53;;
7989;SDS011;4040;42.848;23.034;2022-08-11T18:24:43;9.80;;;4.20;;
7989;SDS011;4040;42.848;23.034;2022-08-11T18:30:53;8.23;;;3.95;;
7989;SDS011;4040;42.848;23.034;2022-08-11T18:37:05;5.60;;;5.00;;
7989;SDS011;4040;42.848;23.034;2022-08-11T18:43:15;8.95;;;4.97;;
7989;SDS011;4040;42.848;23.034;2022-08-11T18:49:26;8.15;;;4.90;;
7989;SDS011;4040;42.848;23.034;2022-08-11T18:55:35;7.82;;;5.00;;
7989;SDS011;4040;42.848;23.034;2022-08-11T19:01:41;9.50;;;4.40;;
7989;SDS011;4040;42.848;23.034;2022-08-11T19:07:50;9.55;;;5.22;;
7989;SDS011;4040;42.848;23.034;2022-08-11T19:14:00;7.13;;;4.05;;
7989;SDS011;4040;42.848;23.034;2022-08-11T19:20:09;4.40;;;4.00;;
7989;SDS011;4040;42.848;23.034;2022-08-11T19:26:19;5.43;;;4.47;;
7989;SDS011;4040;42.848;23.034;2022-08-11T19:32:28;7.00;;;4.38;;
7989;SDS011;4040;42.848;23.034;2022-08-11T19:38:35;11.25;;;5.15;;
7989;SDS011;4040;42.848;23.034;2022-08-11T19:44:43;11.35;;;4.90;;
7989;SDS011;4040;42.848;23.034;2022-08-11T19:50:50;7.10;;;5.10;;
7989;SDS011;4040;42.848;23.034;2022-08-11T19:56:58;5.53;;;5.03;;
7989;SDS011;4040;42.848;23.034;2022-08-11T20:03:08;5.55;;;4.53;;
7989;SDS011;4040;42.848;23.034;2022-08-11T20:09:15;5.88;;;5.05;;
7989;SDS011;4040;42.848;23.034;2022-08-11T20:15:22;9.30;;;5.78;;
7989;SDS011;4040;42.848;23.034;2022-08-11T20:21:32;11.68;;;5.78;;
7989;SDS011;4040;42.848;23.034;2022-08-11T20:27:40;8.13;;;5.80;;
7989;SDS011;4040;42.848;23.034;2022-08-11T20:37:31;9.13;;;7.70;;
7989;SDS011;4040;42.848;23.034;2022-08-11T20:43:39;6.85;;;5.88;;
7989;SDS011;4040;42.848;23.034;2022-08-11T20:49:47;7.40;;;5.97;;
7989;SDS011;4040;42.848;23.034;2022-08-11T20:55:55;5.68;;;5.18;;
7989;SDS011;4040;42.848;23.034;2022-08-11T21:02:03;6.50;;;5.88;;
7989;SDS011;4040;42.848;23.034;2022-08-11T21:08:10;9.10;;;5.78;;
7989;SDS011;4040;42.848;23.034;2022-08-11T21:14:19;7.50;;;5.85;;
7989;SDS011;4040;42.848;23.034;2022-08-11T21:20:26;7.35;;;6.10;;
7989;SDS011;4040;42.848;23.034;2022-08-11T21:26:34;6.70;;;6.00;;
7989;SDS011;4040;42.848;23.034;2022-08-11T21:32:43;6.65;;;5.85;;
7989;SDS011;4040;42.848;23.034;2022-08-11T21:38:50;6.18;;;5.57;;
7989;SDS011;4040;42.848;23.034;2022-08-11T21:44:56;7.07;;;5.85;;
7989;SDS011;4040;42.848;23.034;2022-08-11T21:51:05;7.72;;;5.38;;
7989;SDS011;4040;42.848;23.034;2022-08-11T21:57:12;6.78;;;6.07;;
7989;SDS011;4040;42.848;23.034;2022-08-11T22:08:31;7.45;;;5.75;;
7989;SDS011;4040;42.848;23.034;2022-08-11T22:14:38;7.75;;;6.28;;
7989;SDS011;4040;42.848;23.034;2022-08-11T22:20:45;6.30;;;5.70;;
7989;SDS011;4040;42.848;23.034;2022-08-11T22:26:54;7.75;;;6.25;;
7989;SDS011;4040;42.848;23.034;2022-08-11T22:33:00;7.93;;;6.00;;
7989;SDS011;4040;42.848;23.034;2022-08-11T22:39:07;7.63;;;5.68;;
7989;SDS011;4040;42.848;23.034;2022-08-11T22:45:17;8.52;;;6.47;;
7989;SDS011;4040;42.848;23.034;2022-08-11T22:51:23;10.10;;;6.28;;
7989;SDS011;4040;42.848;23.034;2022-08-11T22:57:30;7.55;;;6.40;;
7989;SDS011;4040;42.848;23.034;2022-08-11T23:03:38;8.55;;;6.40;;
7989;SDS011;4040;42.848;23.034;2022-08-11T23:09:44;8.57;;;6.30;;
7989;SDS011;4040;42.848;23.034;2022-08-11T23:15:51;7.05;;;6.20;;
7989;SDS011;4040;42.848;23.034;2022-08-11T23:21:59;7.40;;;6.35;;
7989;SDS011;4040;42.848;23.034;2022-08-11T23:28:07;8.05;;;6.32;;
7989;SDS011;4040;42.848;23.034;2022-08-11T23:34:17;7.63;;;6.45;;
7989;SDS011;4040;42.848;23.034;2022-08-11T23:40:26;8.43;;;7.25;;
7989;SDS011;4040;42.848;23.034;2022-08-11T23:46:33;8.00;;;7.20;;
7989;SDS011;4040;42.848;23.034;2022-08-11T23:52:40;6.95;;;6.28;;
7989;SDS011;4040;42.848;23.034;2022-08-11T23:58:49;7.90;;;7.10;;
